sensor_id;sensor_type;location;lat;lon;timestamp;pressure;altitude;pressure_sealevel;temperature;humidity
61568;BME280;47462;59.172;17.196;2024-01-30T00:01:42;102109.88;;;2.57;95.95
61568;BME280;47462;59.172;17.196;2024-01-30T00:04:07;102119.53;;;2.64;95.98
61568;BME280;47462;59.172;17.196;2024-01-30T00:06:33;102120.25;;;2.60;96.02
61568;BME280;47462;59.172;17.196;2024-01-30T00:08:58;102116.00;;;2.61;95.71
61568;BME280;47462;59.172;17.196;2024-01-30T00:11:23;102116.88;;;2.61;95.94
61568;BME280;47462;59.172;17.196;2024-01-30T00:13:53;102106.56;;;2.61;95.95
61568;BME280;47462;59.172;17.196;2024-01-30T00:16:20;102105.72;;;2.62;95.83
61568;BME280;47462;59.172;17.196;2024-01-30T00:18:46;102107.50;;;2.63;96.16
61568;BME280;47462;59.172;17.196;2024-01-30T00:21:11;102116.03;;;2.62;95.98
61568;BME280;47462;59.172;17.196;2024-01-30T00:23:37;102102.19;;;2.59;96.04
61568;BME280;47462;59.172;17.196;2024-01-30T00:26:03;102109.88;;;2.57;95.38
61568;BME280;47462;59.172;17.196;2024-01-30T00:28:28;102109.78;;;2.54;95.48
61568;BME280;47462;59.172;17.196;2024-01-30T00:30:53;102117.41;;;2.49;95.15
61568;BME280;47462;59.172;17.196;2024-01-30T00:33:19;102114.66;;;2.43;95.16
61568;BME280;47462;59.172;17.196;2024-01-30T00:35:44;102115.50;;;2.42;95.55
61568;BME280;47462;59.172;17.196;2024-01-30T00:38:09;102112.81;;;2.38;95.76
61568;BME280;47462;59.172;17.196;2024-01-30T00:40:35;102117.91;;;2.36;95.89
61568;BME280;47462;59.172;17.196;2024-01-30T00:43:00;102123.09;;;2.38;95.75
61568;BME280;47462;59.172;17.196;2024-01-30T00:45:25;102119.59;;;2.36;95.92
61568;BME280;47462;59.172;17.196;2024-01-30T00:47:51;102114.41;;;2.34;95.98
61568;BME280;47462;59.172;17.196;2024-01-30T00:50:16;102124.66;;;2.32;95.82
61568;BME280;47462;59.172;17.196;2024-01-30T00:52:41;102115.22;;;2.31;95.91
61568;BME280;47462;59.172;17.196;2024-01-30T00:55:10;102119.47;;;2.31;96.12
61568;BME280;47462;59.172;17.196;2024-01-30T00:57:36;102110.78;;;2.27;96.40
61568;BME280;47462;59.172;17.196;2024-01-30T01:00:02;102115.13;;;2.28;96.68
61568;BME280;47462;59.172;17.196;2024-01-30T01:02:28;102117.69;;;2.28;96.63
61568;BME280;47462;59.172;17.196;2024-01-30T01:04:53;102126.97;;;2.23;96.68
61568;BME280;47462;59.172;17.196;2024-01-30T01:07:19;102127.75;;;2.19;96.87
61568;BME280;47462;59.172;17.196;2024-01-30T01:09:44;102132.97;;;2.22;96.93
61568;BME280;47462;59.172;17.196;2024-01-30T01:12:09;102136.38;;;2.21;96.67
61568;BME280;47462;59.172;17.196;2024-01-30T01:14:35;102132.88;;;2.19;97.11
61568;BME280;47462;59.172;17.196;2024-01-30T01:17:01;102136.19;;;2.15;96.81
61568;BME280;47462;59.172;17.196;2024-01-30T01:19:27;102148.03;;;2.08;96.71
61568;BME280;47462;59.172;17.196;2024-01-30T01:21:52;102138.50;;;2.06;97.29
61568;BME280;47462;59.172;17.196;2024-01-30T01:24:18;102135.84;;;2.03;96.92
61568;BME280;47462;59.172;17.196;2024-01-30T01:26:43;102128.72;;;1.94;97.00
61568;BME280;47462;59.172;17.196;2024-01-30T01:29:09;102132.94;;;1.92;96.69
61568;BME280;47462;59.172;17.196;2024-01-30T01:31:38;102139.06;;;1.95;97.25
61568;BME280;47462;59.172;17.196;2024-01-30T01:34:12;102140.81;;;1.96;97.37
61568;BME280;47462;59.172;17.196;2024-01-30T01:36:38;102135.69;;;1.98;97.63
61568;BME280;47462;59.172;17.196;2024-01-30T01:39:04;102125.34;;;1.96;97.02
61568;BME280;47462;59.172;17.196;2024-01-30T01:41:30;102124.59;;;1.99;97.31
61568;BME280;47462;59.172;17.196;2024-01-30T01:43:56;102113.22;;;1.92;97.20
61568;BME280;47462;59.172;17.196;2024-01-30T01:46:22;102121.66;;;1.88;96.82
61568;BME280;47462;59.172;17.196;2024-01-30T01:48:47;102119.75;;;1.81;97.00
61568;BME280;47462;59.172;17.196;2024-01-30T01:51:14;102131.69;;;1.79;97.12
61568;BME280;47462;59.172;17.196;2024-01-30T01:53:40;102135.00;;;1.75;97.41
61568;BME280;47462;59.172;17.196;2024-01-30T01:56:05;102130.63;;;1.72;97.22
61568;BME280;47462;59.172;17.196;2024-01-30T01:58:31;102137.59;;;1.75;97.80
61568;BME280;47462;59.172;17.196;2024-01-30T02:00:57;102130.72;;;1.75;97.75
61568;BME280;47462;59.172;17.196;2024-01-30T02:03:24;102125.69;;;1.78;97.46
61568;BME280;47462;59.172;17.196;2024-01-30T02:05:50;102123.09;;;1.78;97.92
61568;BME280;47462;59.172;17.196;2024-01-30T02:08:16;102115.34;;;1.77;97.51
61568;BME280;47462;59.172;17.196;2024-01-30T02:10:41;102117.03;;;1.76;97.51
61568;BME280;47462;59.172;17.196;2024-01-30T02:13:06;102104.13;;;1.75;97.65
61568;BME280;47462;59.172;17.196;2024-01-30T02:15:32;102115.38;;;1.78;97.67
61568;BME280;47462;59.172;17.196;2024-01-30T02:17:57;102118.81;;;1.79;97.55
61568;BME280;47462;59.172;17.196;2024-01-30T02:20:24;102127.19;;;1.72;97.14
61568;BME280;47462;59.172;17.196;2024-01-30T02:22:52;102121.06;;;1.68;97.55
61568;BME280;47462;59.172;17.196;2024-01-30T02:25:17;102120.91;;;1.64;97.44
61568;BME280;47462;59.172;17.196;2024-01-30T02:27:43;102116.47;;;1.58;97.33
61568;BME280;47462;59.172;17.196;2024-01-30T02:30:09;102117.50;;;1.63;97.48
61568;BME280;47462;59.172;17.196;2024-01-30T02:32:34;102125.16;;;1.62;97.38
61568;BME280;47462;59.172;17.196;2024-01-30T02:34:59;102129.44;;;1.61;97.71
61568;BME280;47462;59.172;17.196;2024-01-30T02:37:25;102125.13;;;1.60;97.52
61568;BME280;47462;59.172;17.196;2024-01-30T02:39:50;102134.72;;;1.66;97.57
61568;BME280;47462;59.172;17.196;2024-01-30T02:42:16;102127.00;;;1.66;97.57
61568;BME280;47462;59.172;17.196;2024-01-30T02:44:41;102119.09;;;1.59;97.43
61568;BME280;47462;59.172;17.196;2024-01-30T02:47:06;102122.50;;;1.58;97.90
61568;BME280;47462;59.172;17.196;2024-01-30T02:49:32;102120.78;;;1.59;98.09
61568;BME280;47462;59.172;17.196;2024-01-30T02:51:57;102119.19;;;1.63;97.95
61568;BME280;47462;59.172;17.196;2024-01-30T02:54:22;102120.97;;;1.65;98.16
61568;BME280;47462;59.172;17.196;2024-01-30T02:56:48;102116.56;;;1.61;98.15
61568;BME280;47462;59.172;17.196;2024-01-30T02:59:13;102126.13;;;1.65;98.44
61568;BME280;47462;59.172;17.196;2024-01-30T03:01:45;102113.25;;;1.65;98.04
61568;BME280;47462;59.172;17.196;2024-01-30T03:04:11;102112.53;;;1.69;98.05
61568;BME280;47462;59.172;17.196;2024-01-30T03:06:36;102109.13;;;1.70;97.97
61568;BME280;47462;59.172;17.196;2024-01-30T03:09:02;102108.25;;;1.70;98.05
61568;BME280;47462;59.172;17.196;2024-01-30T03:11:28;102118.59;;;1.71;98.08
61568;BME280;47462;59.172;17.196;2024-01-30T03:13:53;102120.09;;;1.65;97.67
61568;BME280;47462;59.172;17.196;2024-01-30T03:16:18;102118.31;;;1.62;98.34
61568;BME280;47462;59.172;17.196;2024-01-30T03:18:44;102120.88;;;1.62;98.54
61568;BME280;47462;59.172;17.196;2024-01-30T03:21:09;102116.47;;;1.58;97.81
61568;BME280;47462;59.172;17.196;2024-01-30T03:23:34;102118.91;;;1.53;98.32
61568;BME280;47462;59.172;17.196;2024-01-30T03:26:00;102120.72;;;1.57;98.24
61568;BME280;47462;59.172;17.196;2024-01-30T03:28:25;102114.88;;;1.62;98.41
61568;BME280;47462;59.172;17.196;2024-01-30T03:30:51;102111.38;;;1.59;98.58
61568;BME280;47462;59.172;17.196;2024-01-30T03:33:16;102122.59;;;1.62;98.65
61568;BME280;47462;59.172;17.196;2024-01-30T03:35:42;102115.78;;;1.64;98.03
61568;BME280;47462;59.172;17.196;2024-01-30T03:38:08;102121.88;;;1.66;98.19
61568;BME280;47462;59.172;17.196;2024-01-30T03:40:33;102104.56;;;1.62;97.60
61568;BME280;47462;59.172;17.196;2024-01-30T03:42:58;102113.06;;;1.59;97.97
61568;BME280;47462;59.172;17.196;2024-01-30T03:45:24;102108.00;;;1.62;98.36
61568;BME280;47462;59.172;17.196;2024-01-30T03:47:49;102097.56;;;1.57;97.75
61568;BME280;47462;59.172;17.196;2024-01-30T03:50:14;102105.38;;;1.60;97.51
61568;BME280;47462;59.172;17.196;2024-01-30T03:52:40;102104.47;;;1.58;97.68
61568;BME280;47462;59.172;17.196;2024-01-30T03:55:05;102101.75;;;1.54;98.08
61568;BME280;47462;59.172;17.196;2024-01-30T03:57:30;102104.38;;;1.55;98.19
61568;BME280;47462;59.172;17.196;2024-01-30T03:59:56;102106.09;;;1.55;97.80
61568;BME280;47462;59.172;17.196;2024-01-30T04:02:21;102108.63;;;1.53;98.07
61568;BME280;47462;59.172;17.196;2024-01-30T04:04:47;102097.53;;;1.56;98.32
61568;BME280;47462;59.172;17.196;2024-01-30T04:07:12;102108.84;;;1.61;98.00
61568;BME280;47462;59.172;17.196;2024-01-30T04:09:38;102113.16;;;1.62;98.07
61568;BME280;47462;59.172;17.196;2024-01-30T04:12:03;102107.09;;;1.60;98.11
61568;BME280;47462;59.172;17.196;2024-01-30T04:14:29;102108.81;;;1.59;98.11
61568;BME280;47462;59.172;17.196;2024-01-30T04:16:54;102108.72;;;1.56;97.85
61568;BME280;47462;59.172;17.196;2024-01-30T04:19:19;102101.63;;;1.49;98.15
61568;BME280;47462;59.172;17.196;2024-01-30T04:21:45;102111.97;;;1.51;98.07
61568;BME280;47462;59.172;17.196;2024-01-30T04:24:10;102113.66;;;1.50;98.48
61568;BME280;47462;59.172;17.196;2024-01-30T04:26:36;102110.34;;;1.54;98.74
61568;BME280;47462;59.172;17.196;2024-01-30T04:29:02;102112.16;;;1.57;98.26
61568;BME280;47462;59.172;17.196;2024-01-30T04:31:27;102118.22;;;1.59;98.17
61568;BME280;47462;59.172;17.196;2024-01-30T04:33:53;102115.69;;;1.60;98.01
61568;BME280;47462;59.172;17.196;2024-01-30T04:36:18;102116.56;;;1.61;98.03
61568;BME280;47462;59.172;17.196;2024-01-30T04:38:44;102106.97;;;1.55;97.76
61568;BME280;47462;59.172;17.196;2024-01-30T04:41:10;102104.38;;;1.55;98.07
61568;BME280;47462;59.172;17.196;2024-01-30T04:43:35;102108.72;;;1.56;98.14
61568;BME280;47462;59.172;17.196;2024-01-30T04:46:01;102106.25;;;1.59;97.80
61568;BME280;47462;59.172;17.196;2024-01-30T04:48:27;102110.53;;;1.60;97.97
61568;BME280;47462;59.172;17.196;2024-01-30T04:50:52;102102.78;;;1.59;97.73
61568;BME280;47462;59.172;17.196;2024-01-30T04:53:17;102117.16;;;1.52;97.29
61568;BME280;47462;59.172;17.196;2024-01-30T04:55:44;102124.06;;;1.53;97.76
61568;BME280;47462;59.172;17.196;2024-01-30T04:58:09;102129.31;;;1.56;97.93
61568;BME280;47462;59.172;17.196;2024-01-30T05:00:35;102125.06;;;1.58;97.57
61568;BME280;47462;59.172;17.196;2024-01-30T05:03:00;102124.16;;;1.56;97.41
61568;BME280;47462;59.172;17.196;2024-01-30T05:05:25;102119.53;;;1.46;97.32
61568;BME280;47462;59.172;17.196;2024-01-30T05:07:51;102116.91;;;1.45;97.67
61568;BME280;47462;59.172;17.196;2024-01-30T05:10:16;102120.41;;;1.47;97.66
61568;BME280;47462;59.172;17.196;2024-01-30T05:12:42;102122.09;;;1.46;97.62
61568;BME280;47462;59.172;17.196;2024-01-30T05:15:07;102118.69;;;1.46;97.24
61568;BME280;47462;59.172;17.196;2024-01-30T05:17:33;102115.09;;;1.42;97.81
61568;BME280;47462;59.172;17.196;2024-01-30T05:19:58;102109.78;;;1.36;97.73
61568;BME280;47462;59.172;17.196;2024-01-30T05:22:24;102110.66;;;1.36;97.98
61568;BME280;47462;59.172;17.196;2024-01-30T05:24:49;102122.63;;;1.36;97.84
61568;BME280;47462;59.172;17.196;2024-01-30T05:27:15;102131.28;;;1.38;98.35
61568;BME280;47462;59.172;17.196;2024-01-30T05:29:40;102120.06;;;1.36;98.17
61568;BME280;47462;59.172;17.196;2024-01-30T05:32:06;102111.63;;;1.40;97.93
61568;BME280;47462;59.172;17.196;2024-01-30T05:34:32;102103.03;;;1.39;97.68
61568;BME280;47462;59.172;17.196;2024-01-30T05:36:57;102105.63;;;1.39;98.08
61568;BME280;47462;59.172;17.196;2024-01-30T05:39:23;102104.69;;;1.37;97.64
61568;BME280;47462;59.172;17.196;2024-01-30T05:41:48;102106.38;;;1.37;97.67
61568;BME280;47462;59.172;17.196;2024-01-30T05:44:13;102100.44;;;1.38;98.15
61568;BME280;47462;59.172;17.196;2024-01-30T05:46:39;102096.09;;;1.37;97.85
61568;BME280;47462;59.172;17.196;2024-01-30T05:49:04;102093.53;;;1.37;97.68
61568;BME280;47462;59.172;17.196;2024-01-30T05:51:29;102095.13;;;1.33;98.03
61568;BME280;47462;59.172;17.196;2024-01-30T05:53:55;102107.00;;;1.30;97.71
61568;BME280;47462;59.172;17.196;2024-01-30T05:56:20;102103.56;;;1.29;97.41
61568;BME280;47462;59.172;17.196;2024-01-30T05:58:45;102103.66;;;1.32;97.64
61568;BME280;47462;59.172;17.196;2024-01-30T06:01:11;102101.09;;;1.32;97.81
61568;BME280;47462;59.172;17.196;2024-01-30T06:03:36;102100.16;;;1.30;97.58
61568;BME280;47462;59.172;17.196;2024-01-30T06:06:02;102097.44;;;1.25;97.60
61568;BME280;47462;59.172;17.196;2024-01-30T06:08:27;102094.16;;;1.30;97.80
61568;BME280;47462;59.172;17.196;2024-01-30T06:10:53;102102.81;;;1.32;97.14
61568;BME280;47462;59.172;17.196;2024-01-30T06:13:18;102106.19;;;1.31;97.39
61568;BME280;47462;59.172;17.196;2024-01-30T06:15:43;102100.91;;;1.26;97.16
61568;BME280;47462;59.172;17.196;2024-01-30T06:18:09;102101.56;;;1.20;96.84
61568;BME280;47462;59.172;17.196;2024-01-30T06:20:34;102103.22;;;1.18;97.75
61568;BME280;47462;59.172;17.196;2024-01-30T06:23:00;102108.50;;;1.23;97.58
61568;BME280;47462;59.172;17.196;2024-01-30T06:25:25;102102.56;;;1.25;97.58
61568;BME280;47462;59.172;17.196;2024-01-30T06:27:52;102111.25;;;1.28;97.41
61568;BME280;47462;59.172;17.196;2024-01-30T06:30:18;102114.72;;;1.30;97.12
61568;BME280;47462;59.172;17.196;2024-01-30T06:32:43;102117.28;;;1.30;97.03
61568;BME280;47462;59.172;17.196;2024-01-30T06:35:09;102114.72;;;1.30;96.69
61568;BME280;47462;59.172;17.196;2024-01-30T06:37:36;102107.72;;;1.25;96.77
61568;BME280;47462;59.172;17.196;2024-01-30T06:40:01;102114.53;;;1.23;96.87
61568;BME280;47462;59.172;17.196;2024-01-30T06:42:27;102113.50;;;1.18;96.43
61568;BME280;47462;59.172;17.196;2024-01-30T06:44:52;102115.97;;;1.15;97.05
61568;BME280;47462;59.172;17.196;2024-01-30T06:47:18;102114.31;;;1.17;96.90
61568;BME280;47462;59.172;17.196;2024-01-30T06:49:43;102117.81;;;1.19;97.26
61568;BME280;47462;59.172;17.196;2024-01-30T06:52:12;102114.44;;;1.20;97.11
61568;BME280;47462;59.172;17.196;2024-01-30T06:54:38;102114.53;;;1.23;97.50
61568;BME280;47462;59.172;17.196;2024-01-30T06:57:04;102116.34;;;1.26;97.09
61568;BME280;47462;59.172;17.196;2024-01-30T06:59:34;102111.34;;;1.31;96.93
61568;BME280;47462;59.172;17.196;2024-01-30T07:01:59;102113.13;;;1.33;96.98
61568;BME280;47462;59.172;17.196;2024-01-30T07:04:24;102107.19;;;1.36;96.79
61568;BME280;47462;59.172;17.196;2024-01-30T07:06:50;102107.16;;;1.34;96.72
61568;BME280;47462;59.172;17.196;2024-01-30T07:09:15;102105.53;;;1.36;96.55
61568;BME280;47462;59.172;17.196;2024-01-30T07:11:40;102101.16;;;1.34;96.54
61568;BME280;47462;59.172;17.196;2024-01-30T07:14:07;102103.72;;;1.34;96.43
61568;BME280;47462;59.172;17.196;2024-01-30T07:16:32;102102.00;;;1.34;96.70
61568;BME280;47462;59.172;17.196;2024-01-30T07:18:58;102097.00;;;1.39;96.73
61568;BME280;47462;59.172;17.196;2024-01-30T07:21:23;102102.16;;;1.39;96.22
61568;BME280;47462;59.172;17.196;2024-01-30T07:23:54;102099.38;;;1.33;96.47
61568;BME280;47462;59.172;17.196;2024-01-30T07:26:19;102093.44;;;1.34;96.11
61568;BME280;47462;59.172;17.196;2024-01-30T07:28:45;102092.72;;;1.38;96.43
61568;BME280;47462;59.172;17.196;2024-01-30T07:31:10;102098.56;;;1.34;96.13
61568;BME280;47462;59.172;17.196;2024-01-30T07:33:36;102100.44;;;1.38;96.19
61568;BME280;47462;59.172;17.196;2024-01-30T07:36:01;102104.00;;;1.43;96.15
61568;BME280;47462;59.172;17.196;2024-01-30T07:38:26;102107.53;;;1.47;96.55
61568;BME280;47462;59.172;17.196;2024-01-30T07:40:52;102105.91;;;1.49;95.91
61568;BME280;47462;59.172;17.196;2024-01-30T07:43:17;102095.75;;;1.53;95.92
61568;BME280;47462;59.172;17.196;2024-01-30T07:45:42;102093.19;;;1.53;95.84
61568;BME280;47462;59.172;17.196;2024-01-30T07:48:08;102094.97;;;1.56;95.88
61568;BME280;47462;59.172;17.196;2024-01-30T07:50:33;102082.13;;;1.57;95.90
61568;BME280;47462;59.172;17.196;2024-01-30T07:53:00;102084.03;;;1.63;95.60
61568;BME280;47462;59.172;17.196;2024-01-30T07:55:27;102078.03;;;1.63;95.95
61568;BME280;47462;59.172;17.196;2024-01-30T07:57:56;102077.94;;;1.59;95.74
61568;BME280;47462;59.172;17.196;2024-01-30T08:00:22;102072.78;;;1.59;95.94
61568;BME280;47462;59.172;17.196;2024-01-30T08:02:48;102075.50;;;1.64;95.95
61568;BME280;47462;59.172;17.196;2024-01-30T08:05:14;102070.44;;;1.67;95.79
61568;BME280;47462;59.172;17.196;2024-01-30T08:07:40;102064.50;;;1.70;95.59
61568;BME280;47462;59.172;17.196;2024-01-30T08:10:06;102060.16;;;1.67;95.77
61568;BME280;47462;59.172;17.196;2024-01-30T08:12:31;102072.31;;;1.73;95.57
61568;BME280;47462;59.172;17.196;2024-01-30T08:14:57;102066.34;;;1.74;95.39
61568;BME280;47462;59.172;17.196;2024-01-30T08:17:23;102068.09;;;1.75;95.71
61568;BME280;47462;59.172;17.196;2024-01-30T08:19:48;102062.00;;;1.73;95.61
61568;BME280;47462;59.172;17.196;2024-01-30T08:22:14;102064.69;;;1.76;96.09
61568;BME280;47462;59.172;17.196;2024-01-30T08:24:41;102056.91;;;1.74;95.59
61568;BME280;47462;59.172;17.196;2024-01-30T08:27:06;102067.44;;;1.82;95.93
61568;BME280;47462;59.172;17.196;2024-01-30T08:29:34;102070.94;;;1.84;95.80
61568;BME280;47462;59.172;17.196;2024-01-30T08:32:00;102066.53;;;1.80;95.47
61568;BME280;47462;59.172;17.196;2024-01-30T08:34:25;102076.09;;;1.84;95.96
61568;BME280;47462;59.172;17.196;2024-01-30T08:36:51;102065.84;;;1.86;95.43
61568;BME280;47462;59.172;17.196;2024-01-30T08:39:16;102063.03;;;1.78;95.52
61568;BME280;47462;59.172;17.196;2024-01-30T08:41:41;102071.56;;;1.77;95.86
61568;BME280;47462;59.172;17.196;2024-01-30T08:44:07;102069.63;;;1.70;96.05
61568;BME280;47462;59.172;17.196;2024-01-30T08:46:32;102070.63;;;1.73;96.08
61568;BME280;47462;59.172;17.196;2024-01-30T08:48:58;102074.25;;;1.80;96.34
61568;BME280;47462;59.172;17.196;2024-01-30T08:51:23;102080.34;;;1.84;96.22
61568;BME280;47462;59.172;17.196;2024-01-30T08:53:48;102083.91;;;1.87;96.21
61568;BME280;47462;59.172;17.196;2024-01-30T08:56:13;102076.22;;;1.89;95.95
61568;BME280;47462;59.172;17.196;2024-01-30T08:58:41;102076.25;;;1.90;95.91
61568;BME280;47462;59.172;17.196;2024-01-30T09:01:07;102067.81;;;1.96;96.37
61568;BME280;47462;59.172;17.196;2024-01-30T09:03:32;102065.38;;;1.99;96.19
61568;BME280;47462;59.172;17.196;2024-01-30T09:05:58;102060.19;;;1.98;96.54
61568;BME280;47462;59.172;17.196;2024-01-30T09:08:23;102079.41;;;2.10;96.28
61568;BME280;47462;59.172;17.196;2024-01-30T09:10:49;102074.22;;;2.09;96.41
61568;BME280;47462;59.172;17.196;2024-01-30T09:13:15;102061.38;;;2.10;96.39
61568;BME280;47462;59.172;17.196;2024-01-30T09:15:41;102061.47;;;2.13;96.50
61568;BME280;47462;59.172;17.196;2024-01-30T09:18:07;102059.84;;;2.17;96.19
61568;BME280;47462;59.172;17.196;2024-01-30T09:20:32;102047.00;;;2.19;96.16
61568;BME280;47462;59.172;17.196;2024-01-30T09:22:57;102045.31;;;2.19;96.32
61568;BME280;47462;59.172;17.196;2024-01-30T09:25:23;102040.34;;;2.25;96.33
61568;BME280;47462;59.172;17.196;2024-01-30T09:27:48;102036.94;;;2.28;95.70
61568;BME280;47462;59.172;17.196;2024-01-30T09:30:14;102041.41;;;2.34;95.83
61568;BME280;47462;59.172;17.196;2024-01-30T09:32:40;102040.59;;;2.35;95.75
61568;BME280;47462;59.172;17.196;2024-01-30T09:35:05;102036.28;;;2.35;95.69
61568;BME280;47462;59.172;17.196;2024-01-30T09:37:31;102048.56;;;2.44;95.75
61568;BME280;47462;59.172;17.196;2024-01-30T09:39:56;102033.94;;;2.44;95.98
61568;BME280;47462;59.172;17.196;2024-01-30T09:42:34;102034.81;;;2.45;95.66
61568;BME280;47462;59.172;17.196;2024-01-30T09:45:04;102024.50;;;2.45;96.19
61568;BME280;47462;59.172;17.196;2024-01-30T09:47:40;102032.31;;;2.48;95.85
61568;BME280;47462;59.172;17.196;2024-01-30T09:50:10;102037.47;;;2.48;96.20
61568;BME280;47462;59.172;17.196;2024-01-30T09:52:35;102034.84;;;2.46;95.79
61568;BME280;47462;59.172;17.196;2024-01-30T09:55:01;102037.28;;;2.40;95.65
61568;BME280;47462;59.172;17.196;2024-01-30T09:57:27;102037.16;;;2.36;96.23
61568;BME280;47462;59.172;17.196;2024-01-30T09:59:53;102029.47;;;2.37;96.33
61568;BME280;47462;59.172;17.196;2024-01-30T10:02:19;102028.63;;;2.38;96.34
61568;BME280;47462;59.172;17.196;2024-01-30T10:04:50;102021.69;;;2.36;96.36
61568;BME280;47462;59.172;17.196;2024-01-30T10:07:17;102023.44;;;2.37;96.16
61568;BME280;47462;59.172;17.196;2024-01-30T10:09:42;102026.16;;;2.41;96.28
61568;BME280;47462;59.172;17.196;2024-01-30T10:12:12;102025.38;;;2.44;96.27
61568;BME280;47462;59.172;17.196;2024-01-30T10:14:41;102028.75;;;2.43;96.19
61568;BME280;47462;59.172;17.196;2024-01-30T10:17:10;102029.69;;;2.46;96.56
61568;BME280;47462;59.172;17.196;2024-01-30T10:19:37;102028.03;;;2.47;96.63
61568;BME280;47462;59.172;17.196;2024-01-30T10:22:04;102027.25;;;2.51;96.53
61568;BME280;47462;59.172;17.196;2024-01-30T10:24:29;102012.75;;;2.55;96.31
61568;BME280;47462;59.172;17.196;2024-01-30T10:26:55;102011.16;;;2.60;96.29
61568;BME280;47462;59.172;17.196;2024-01-30T10:29:21;102011.16;;;2.60;96.23
61568;BME280;47462;59.172;17.196;2024-01-30T10:32:03;102003.53;;;2.64;96.38
61568;BME280;47462;59.172;17.196;2024-01-30T10:34:29;102002.78;;;2.68;96.26
61568;BME280;47462;59.172;17.196;2024-01-30T10:37:05;102004.59;;;2.71;96.06
61568;BME280;47462;59.172;17.196;2024-01-30T10:39:32;102003.63;;;2.67;96.13
61568;BME280;47462;59.172;17.196;2024-01-30T10:42:04;101993.31;;;2.67;96.13
61568;BME280;47462;59.172;17.196;2024-01-30T10:44:36;101995.09;;;2.70;96.27
61568;BME280;47462;59.172;17.196;2024-01-30T10:47:06;101986.56;;;2.73;96.08
61568;BME280;47462;59.172;17.196;2024-01-30T10:49:33;101984.91;;;2.75;96.00
61568;BME280;47462;59.172;17.196;2024-01-30T10:51:59;101984.06;;;2.76;95.91
61568;BME280;47462;59.172;17.196;2024-01-30T10:54:26;101980.56;;;2.74;95.94
61568;BME280;47462;59.172;17.196;2024-01-30T10:56:52;101974.53;;;2.73;96.02
61568;BME280;47462;59.172;17.196;2024-01-30T10:59:19;101965.91;;;2.71;96.10
61568;BME280;47462;59.172;17.196;2024-01-30T11:01:45;101963.38;;;2.73;96.28
61568;BME280;47462;59.172;17.196;2024-01-30T11:04:11;101953.03;;;2.71;96.41
61568;BME280;47462;59.172;17.196;2024-01-30T11:06:42;101956.56;;;2.76;96.58
61568;BME280;47462;59.172;17.196;2024-01-30T11:09:10;101941.03;;;2.73;96.58
61568;BME280;47462;59.172;17.196;2024-01-30T11:11:57;101938.47;;;2.73;96.18
61568;BME280;47462;59.172;17.196;2024-01-30T11:14:27;101938.50;;;2.75;96.17
61568;BME280;47462;59.172;17.196;2024-01-30T11:16:57;101939.47;;;2.80;96.27
61568;BME280;47462;59.172;17.196;2024-01-30T11:19:26;101929.19;;;2.81;95.70
61568;BME280;47462;59.172;17.196;2024-01-30T11:21:53;101936.19;;;2.87;95.72
61568;BME280;47462;59.172;17.196;2024-01-30T11:24:20;101921.69;;;2.92;95.58
61568;BME280;47462;59.172;17.196;2024-01-30T11:26:56;101921.81;;;2.98;95.43
61568;BME280;47462;59.172;17.196;2024-01-30T11:29:27;101919.38;;;3.04;95.37
61568;BME280;47462;59.172;17.196;2024-01-30T11:31:57;101917.66;;;3.03;95.11
61568;BME280;47462;59.172;17.196;2024-01-30T11:34:23;101911.72;;;3.08;95.42
61568;BME280;47462;59.172;17.196;2024-01-30T11:36:55;101910.97;;;3.13;95.24
61568;BME280;47462;59.172;17.196;2024-01-30T11:39:24;101909.38;;;3.20;95.33
61568;BME280;47462;59.172;17.196;2024-01-30T11:41:51;101912.84;;;3.20;95.22
61568;BME280;47462;59.172;17.196;2024-01-30T11:44:20;101903.47;;;3.24;95.23
61568;BME280;47462;59.172;17.196;2024-01-30T11:46:49;101896.72;;;3.29;95.58
61568;BME280;47462;59.172;17.196;2024-01-30T11:49:15;101895.94;;;3.35;95.30
61568;BME280;47462;59.172;17.196;2024-01-30T11:51:41;101895.16;;;3.37;95.39
61568;BME280;47462;59.172;17.196;2024-01-30T11:54:07;101894.38;;;3.42;95.07
61568;BME280;47462;59.172;17.196;2024-01-30T11:56:33;101884.91;;;3.42;95.31
61568;BME280;47462;59.172;17.196;2024-01-30T11:58:58;101887.50;;;3.42;95.25
61568;BME280;47462;59.172;17.196;2024-01-30T12:01:26;101882.13;;;3.31;94.89
61568;BME280;47462;59.172;17.196;2024-01-30T12:03:52;101881.22;;;3.29;95.35
61568;BME280;47462;59.172;17.196;2024-01-30T12:06:17;101872.56;;;3.27;95.45
61568;BME280;47462;59.172;17.196;2024-01-30T12:08:43;101872.50;;;3.24;95.24
61568;BME280;47462;59.172;17.196;2024-01-30T12:11:09;101880.25;;;3.24;95.55
61568;BME280;47462;59.172;17.196;2024-01-30T12:13:35;101870.84;;;3.28;95.74
61568;BME280;47462;59.172;17.196;2024-01-30T12:16:01;101859.66;;;3.27;95.43
61568;BME280;47462;59.172;17.196;2024-01-30T12:18:26;101860.59;;;3.29;96.05
61568;BME280;47462;59.172;17.196;2024-01-30T12:21:01;101872.63;;;3.30;96.12
61568;BME280;47462;59.172;17.196;2024-01-30T12:23:27;101856.28;;;3.30;96.06
61568;BME280;47462;59.172;17.196;2024-01-30T12:25:53;101864.88;;;3.30;96.29
61568;BME280;47462;59.172;17.196;2024-01-30T12:28:20;101864.13;;;3.34;96.25
61568;BME280;47462;59.172;17.196;2024-01-30T12:30:45;101857.28;;;3.36;96.10
61568;BME280;47462;59.172;17.196;2024-01-30T12:33:16;101858.13;;;3.35;96.29
61568;BME280;47462;59.172;17.196;2024-01-30T12:35:46;101858.09;;;3.34;96.30
61568;BME280;47462;59.172;17.196;2024-01-30T12:38:13;101859.84;;;3.36;96.43
61568;BME280;47462;59.172;17.196;2024-01-30T12:40:39;101865.03;;;3.38;96.62
61568;BME280;47462;59.172;17.196;2024-01-30T12:43:04;101860.78;;;3.38;96.37
61568;BME280;47462;59.172;17.196;2024-01-30T12:45:30;101856.44;;;3.37;96.18